createdAt,value
2022-11-03T00:02:35.454Z,71.62
2022-11-03T00:05:57.551Z,71.85
2022-11-03T00:09:05.828Z,71.90
2022-11-03T00:12:11.991Z,71.90
2022-11-03T00:15:16.555Z,71.97
2022-11-03T00:18:22.795Z,71.85
2022-11-03T00:21:27.349Z,71.84
2022-11-03T00:24:33.484Z,71.85
2022-11-03T00:27:37.950Z,72.09
2022-11-03T00:30:44.198Z,72.08
2022-11-03T00:33:49.044Z,72.10
2022-11-03T00:36:55.270Z,72.12
2022-11-03T00:39:59.923Z,72.34
2022-11-03T00:43:06.500Z,72.56
2022-11-03T00:46:13.452Z,72.35
2022-11-03T00:49:19.500Z,72.23
2022-11-03T00:52:25.677Z,72.36
2022-11-03T00:55:30.141Z,72.62
2022-11-03T00:58:36.600Z,72.57
2022-11-03T01:01:47.162Z,72.38
2022-11-03T01:05:11.252Z,72.67
2022-11-03T01:08:17.396Z,72.83
2022-11-03T01:11:40.272Z,72.82
2022-11-03T01:14:48.457Z,73.05
2022-11-03T01:17:54.532Z,72.96
2022-11-03T01:21:00.977Z,73.21
2022-11-03T01:24:07.796Z,72.95
2022-11-03T01:27:15.821Z,73.04
2022-11-03T01:30:21.935Z,73.11
2022-11-03T01:33:28.009Z,73.28
2022-11-03T01:36:34.239Z,73.36
2022-11-03T01:39:38.743Z,73.34
2022-11-03T01:42:44.879Z,73.44
2022-11-03T01:45:54.527Z,73.38
2022-11-03T01:49:04.208Z,73.39
2022-11-03T01:52:15.258Z,73.43
2022-11-03T01:55:24.698Z,73.55
2022-11-03T01:58:34.844Z,73.59
2022-11-03T02:01:41.317Z,73.60
2022-11-03T02:04:48.451Z,73.69
2022-11-03T02:08:00.209Z,73.42
2022-11-03T02:11:27.047Z,73.37
2022-11-03T02:14:33.173Z,73.69
2022-11-03T02:17:41.212Z,73.71
2022-11-03T02:20:50.158Z,73.70
2022-11-03T02:24:04.219Z,73.65
2022-11-03T02:27:10.688Z,73.69
2022-11-03T02:30:16.885Z,73.69
2022-11-03T02:33:32.006Z,73.54
2022-11-03T02:36:43.494Z,73.68
2022-11-03T02:39:54.062Z,73.64
2022-11-03T02:43:02.473Z,73.67
2022-11-03T02:46:09.754Z,73.85
2022-11-03T02:49:15.801Z,73.82
2022-11-03T02:52:40.840Z,73.92
2022-11-03T02:55:55.396Z,73.89
2022-11-03T02:59:06.298Z,73.91
2022-11-03T03:02:29.077Z,73.78
2022-11-03T03:05:37.813Z,73.89
2022-11-03T03:08:49.653Z,73.98
2022-11-03T03:11:57.756Z,74.09
2022-11-03T03:15:07.318Z,73.91
2022-11-03T03:18:22.063Z,73.86
2022-11-03T03:21:33.949Z,74.16
2022-11-03T03:24:49.273Z,74.19
2022-11-03T03:28:02.275Z,74.10
2022-11-03T03:31:14.691Z,74.08
2022-11-03T03:34:34.562Z,73.98
2022-11-03T03:37:46.769Z,73.89
2022-11-03T03:40:56.947Z,74.11
2022-11-03T03:44:07.498Z,74.23
2022-11-03T03:47:19.294Z,74.26
2022-11-03T03:50:27.916Z,74.12
2022-11-03T03:53:34.159Z,74.55
2022-11-03T03:56:48.778Z,74.54
2022-11-03T03:59:55.006Z,74.22
2022-11-03T04:03:01.393Z,74.28
2022-11-03T04:06:05.898Z,74.22
2022-11-03T04:09:12.136Z,74.07
2022-11-03T04:12:35.841Z,74.10
2022-11-03T04:15:59.407Z,74.27
2022-11-03T04:19:23.084Z,74.27
2022-11-03T04:22:31.912Z,74.24
2022-11-03T04:25:38.065Z,74.44
2022-11-03T04:28:44.850Z,74.14
2022-11-03T04:31:51.062Z,74.11
2022-11-03T04:34:57.296Z,74.10
2022-11-03T04:38:10.822Z,73.96
2022-11-03T04:41:19.513Z,74.19
2022-11-03T04:44:25.778Z,74.20
2022-11-03T04:47:33.215Z,74.29
2022-11-03T04:50:42.867Z,74.30
2022-11-03T04:53:56.436Z,74.22
2022-11-03T04:57:06.357Z,74.26
2022-11-03T05:00:18.366Z,74.28
2022-11-03T05:03:26.802Z,74.48
2022-11-03T05:06:32.889Z,74.56
2022-11-03T05:09:42.719Z,74.66
2022-11-03T05:12:50.349Z,74.65
2022-11-03T05:16:01.775Z,74.74
2022-11-03T05:19:14.279Z,74.63
2022-11-03T05:22:23.625Z,74.72
2022-11-03T05:25:43.618Z,75.01
2022-11-03T05:28:52.054Z,74.99
2022-11-03T05:31:59.033Z,74.89
2022-11-03T05:35:05.586Z,74.72
2022-11-03T05:38:17.255Z,74.79
2022-11-03T05:41:27.316Z,74.81
2022-11-03T05:44:37.110Z,74.97
2022-11-03T05:47:43.753Z,74.76
2022-11-03T05:50:49.897Z,75.00
2022-11-03T05:53:59.380Z,74.84
2022-11-03T05:57:09.803Z,74.64
2022-11-03T06:00:29.235Z,74.78
2022-11-03T06:03:38.905Z,74.80
2022-11-03T06:06:48.369Z,74.90
2022-11-03T06:09:55.174Z,74.91
2022-11-03T06:13:07.526Z,75.10
2022-11-03T06:16:33.498Z,75.10
2022-11-03T06:19:41.624Z,75.06
2022-11-03T06:22:48.664Z,75.18
2022-11-03T06:25:56.905Z,75.33
2022-11-03T06:29:03.154Z,75.28
2022-11-03T06:32:13.982Z,75.46
2022-11-03T06:35:21.215Z,75.38
2022-11-03T06:38:30.872Z,75.40
2022-11-03T06:41:39.991Z,75.51
2022-11-03T06:44:48.798Z,75.70
2022-11-03T06:47:55.691Z,75.61
2022-11-03T06:51:02.243Z,75.75
2022-11-03T06:54:12.946Z,75.73
2022-11-03T06:57:20.190Z,75.71
2022-11-03T07:00:37.762Z,75.83
2022-11-03T07:03:46.696Z,75.97
2022-11-03T07:06:53.842Z,76.16
2022-11-03T07:10:00.130Z,76.16
2022-11-03T07:13:15.015Z,76.22
2022-11-03T07:16:25.788Z,76.43
2022-11-03T07:19:36.142Z,76.49
2022-11-03T07:22:42.222Z,76.59
2022-11-03T07:25:51.140Z,76.70
2022-11-03T07:28:58.125Z,76.85
2022-11-03T07:32:11.566Z,76.99
2022-11-03T07:35:46.907Z,77.22
2022-11-03T07:39:01.280Z,77.11
2022-11-03T07:42:16.753Z,77.07
2022-11-03T07:45:41.176Z,77.22
2022-11-03T07:48:49.402Z,77.38
2022-11-03T07:51:56.647Z,77.44
2022-11-03T07:55:02.781Z,77.46
2022-11-03T07:58:22.501Z,77.60
2022-11-03T08:01:34.200Z,77.77
2022-11-03T08:04:40.620Z,77.83
2022-11-03T08:07:46.999Z,77.97
2022-11-03T08:10:51.462Z,78.15
2022-11-03T08:13:58.017Z,78.28
2022-11-03T08:17:04.161Z,78.35
2022-11-03T08:20:11.713Z,78.47
2022-11-03T08:23:25.707Z,78.58
2022-11-03T08:26:32.914Z,78.69
2022-11-03T08:29:39.146Z,78.67
2022-11-03T08:32:45.511Z,78.85
2022-11-03T08:35:49.964Z,78.89
2022-11-03T08:38:56.111Z,79.03
2022-11-03T08:42:02.364Z,79.16
2022-11-03T08:45:07.836Z,79.34
2022-11-03T08:48:14.204Z,79.40
2022-11-03T08:51:18.745Z,79.55
2022-11-03T08:54:25.098Z,79.50
2022-11-03T08:57:29.561Z,79.69
2022-11-03T09:00:40.742Z,79.79
2022-11-03T09:03:47.509Z,79.84
2022-11-03T09:06:52.112Z,79.82
2022-11-03T09:13:24.299Z,79.55
2022-11-03T09:16:30.492Z,79.59
2022-11-03T09:19:36.609Z,79.64
2022-11-03T09:22:42.762Z,79.43
2022-11-03T09:25:48.837Z,79.32
2022-11-03T09:28:54.971Z,79.21
2022-11-03T09:32:01.079Z,78.99
2022-11-03T09:35:09.091Z,79.03
2022-11-03T09:38:15.230Z,78.78
2022-11-03T09:41:27.688Z,78.64
2022-11-03T09:44:50.602Z,78.63
2022-11-03T09:47:57.554Z,78.30
2022-11-03T09:51:03.998Z,78.15
2022-11-03T09:54:13.325Z,78.04
2022-11-03T09:57:20.113Z,77.82
2022-11-03T10:00:27.495Z,77.71
2022-11-03T10:03:33.965Z,77.51
2022-11-03T10:06:40.293Z,77.14
2022-11-03T10:09:49.967Z,77.31
2022-11-03T10:12:56.514Z,77.02
2022-11-03T10:16:05.334Z,76.85
2022-11-03T10:19:15.305Z,76.79
2022-11-03T10:22:22.450Z,76.35
2022-11-03T10:25:40.163Z,76.26
2022-11-03T10:29:00.802Z,75.73
2022-11-03T10:32:27.090Z,75.74
2022-11-03T10:35:37.441Z,75.73
2022-11-03T10:38:44.436Z,75.66
2022-11-03T10:41:59.413Z,75.28
2022-11-03T10:45:18.227Z,74.98
2022-11-03T10:48:26.446Z,74.79
2022-11-03T10:51:32.738Z,74.64
2022-11-03T10:54:39.682Z,74.75
2022-11-03T10:57:50.539Z,74.50
2022-11-03T11:00:59.260Z,74.24
2022-11-03T11:04:05.863Z,74.14
2022-11-03T11:07:25.089Z,74.04
2022-11-03T11:10:32.717Z,73.86
2022-11-03T11:13:38.764Z,73.34
2022-11-03T11:16:56.002Z,73.19
2022-11-03T11:20:35.688Z,73.01
2022-11-03T11:23:49.597Z,72.91
2022-11-03T11:26:55.868Z,72.52
2022-11-03T11:30:02.256Z,72.35
2022-11-03T11:33:23.691Z,72.18
2022-11-03T11:36:29.918Z,72.16
2022-11-03T11:39:49.462Z,71.87
2022-11-03T11:43:28.903Z,71.75
2022-11-03T11:46:42.515Z,71.50
2022-11-03T11:49:48.722Z,71.24
2022-11-03T11:52:59.825Z,70.99
2022-11-03T11:56:06.607Z,70.63
2022-11-03T11:59:24.616Z,70.67
2022-11-03T12:02:32.792Z,70.18
2022-11-03T12:05:39.145Z,70.29
2022-11-03T12:08:46.246Z,69.80
2022-11-03T12:11:55.613Z,69.54
2022-11-03T12:15:02.735Z,69.50
2022-11-03T12:18:36.424Z,69.02
2022-11-03T12:21:55.850Z,68.70
2022-11-03T12:25:04.238Z,68.74
2022-11-03T12:28:10.609Z,68.60
2022-11-03T12:31:16.788Z,68.13
2022-11-03T12:34:21.242Z,68.09
2022-11-03T12:37:27.458Z,67.78
2022-11-03T12:40:33.531Z,67.77
2022-11-03T12:43:37.995Z,67.28
2022-11-03T12:46:44.110Z,67.32
2022-11-03T12:49:48.665Z,67.32
2022-11-03T12:52:54.803Z,66.95
2022-11-03T12:55:59.304Z,66.96
2022-11-03T12:59:05.419Z,66.74
2022-11-03T13:02:11.397Z,66.54
2022-11-03T13:05:17.909Z,66.21
2022-11-03T13:08:24.739Z,66.00
2022-11-03T13:11:48.607Z,66.03
2022-11-03T13:15:12.589Z,65.61
2022-11-03T13:18:19.168Z,65.42
2022-11-03T13:21:25.196Z,65.18
2022-11-03T13:24:29.749Z,65.13
2022-11-03T13:27:35.980Z,64.94
2022-11-03T13:30:42.079Z,64.81
2022-11-03T13:33:46.628Z,64.88
2022-11-03T13:36:52.742Z,64.56
2022-11-03T13:39:57.208Z,64.32
2022-11-03T13:43:03.398Z,64.42
2022-11-03T13:46:09.699Z,64.29
2022-11-03T13:49:59.471Z,64.21
2022-11-03T13:52:42.344Z,64.25
2022-11-03T13:55:48.809Z,64.13
2022-11-03T14:05:47.778Z,63.62
2022-11-03T14:08:54.123Z,63.58
2022-11-03T14:12:18.189Z,63.56
2022-11-03T14:15:24.347Z,63.48
2022-11-03T14:18:30.477Z,63.49
2022-11-03T14:21:37.945Z,63.32
2022-11-03T14:24:44.552Z,63.33
2022-11-03T14:27:50.865Z,63.32
2022-11-03T14:30:59.987Z,63.28
2022-11-03T14:34:06.254Z,63.15
2022-11-03T14:37:13.488Z,63.17
2022-11-03T14:40:33.631Z,63.28
2022-11-03T14:43:39.880Z,63.24
2022-11-03T14:46:45.887Z,63.25
2022-11-03T14:49:52.549Z,63.26
2022-11-03T14:52:59.975Z,63.31
2022-11-03T14:56:06.608Z,63.25
2022-11-03T14:59:12.729Z,63.25
2022-11-03T15:02:17.402Z,63.20
2022-11-03T15:05:46.701Z,63.36
2022-11-03T15:08:56.358Z,63.63
2022-11-03T15:12:02.897Z,63.54
2022-11-03T15:15:09.083Z,63.55
2022-11-03T15:18:15.326Z,63.64
2022-11-03T15:21:21.411Z,63.70
2022-11-03T15:27:53.706Z,63.80
2022-11-03T15:30:58.141Z,64.02
2022-11-03T15:34:07.676Z,64.06
2022-11-03T15:37:15.758Z,64.07
2022-11-03T15:40:21.809Z,64.15
2022-11-03T15:43:27.854Z,64.39
2022-11-03T15:46:35.876Z,64.48
2022-11-03T15:49:42.070Z,64.63
2022-11-03T15:52:48.113Z,64.56
2022-11-03T15:55:54.267Z,64.57
2022-11-03T15:58:58.762Z,64.89
2022-11-03T16:02:20.151Z,64.88
2022-11-03T16:05:30.990Z,65.04
2022-11-03T16:08:35.546Z,65.12
2022-11-03T16:11:41.755Z,65.13
2022-11-03T16:14:46.260Z,65.37
2022-11-03T16:17:52.353Z,65.49
2022-11-03T16:20:58.365Z,65.41
2022-11-03T16:24:04.524Z,65.72
2022-11-03T16:27:09.839Z,65.68
2022-11-03T16:30:16.799Z,65.66
2022-11-03T16:33:23.013Z,65.55
2022-11-03T16:36:27.641Z,65.93
2022-11-03T16:39:34.101Z,65.94
2022-11-03T16:42:40.134Z,66.09
2022-11-03T16:45:46.214Z,66.19
2022-11-03T16:48:52.287Z,66.27
2022-11-03T16:51:58.787Z,66.32
2022-11-03T16:55:05.373Z,66.20
2022-11-03T16:58:11.468Z,66.45
2022-11-03T17:01:17.604Z,66.44
2022-11-03T17:04:24.270Z,66.45
2022-11-03T17:07:30.438Z,66.47
2022-11-03T17:10:35.869Z,66.61
2022-11-03T17:13:42.231Z,66.61
2022-11-03T17:16:47.336Z,67.12
2022-11-03T17:19:53.401Z,67.22
2022-11-03T17:22:59.526Z,67.25
2022-11-03T17:26:06.473Z,67.17
2022-11-03T17:29:16.624Z,67.24
2022-11-03T17:32:26.706Z,67.25
2022-11-03T17:35:39.509Z,67.54
2022-11-03T17:38:46.049Z,67.59
2022-11-03T17:41:52.208Z,67.80
2022-11-03T17:44:59.499Z,67.79
2022-11-03T17:48:06.234Z,67.72
2022-11-03T17:51:13.834Z,67.80
2022-11-03T17:54:20.171Z,67.78
2022-11-03T17:57:24.809Z,68.04
2022-11-03T18:00:31.270Z,68.17
2022-11-03T18:03:37.894Z,68.10
2022-11-03T18:06:45.646Z,68.46
2022-11-03T18:09:51.806Z,68.29
2022-11-03T18:13:19.888Z,68.31
2022-11-03T18:16:26.256Z,68.36
2022-11-03T18:19:33.446Z,68.45
2022-11-03T18:22:39.635Z,68.48
2022-11-03T18:25:46.196Z,68.77
2022-11-03T18:28:53.116Z,68.69
2022-11-03T18:32:01.186Z,68.89
2022-11-03T18:35:15.527Z,68.90
2022-11-03T18:38:23.353Z,68.95
2022-11-03T18:41:39.732Z,69.21
2022-11-03T18:44:46.821Z,69.21
2022-11-03T18:47:54.237Z,69.32
2022-11-03T18:51:00.336Z,69.43
2022-11-03T18:54:07.162Z,69.51
2022-11-03T18:57:14.553Z,69.60
2022-11-03T19:00:23.589Z,69.71
2022-11-03T19:03:30.490Z,69.70
2022-11-03T19:06:37.593Z,69.73
2022-11-03T19:09:44.982Z,69.90
2022-11-03T19:12:51.202Z,70.11
2022-11-03T19:15:58.209Z,70.22
2022-11-03T19:19:04.234Z,70.28
2022-11-03T19:22:14.398Z,70.28
2022-11-03T19:25:20.681Z,70.56
2022-11-03T19:28:25.860Z,70.96
2022-11-03T19:31:35.777Z,70.92
2022-11-03T19:34:43.414Z,70.98
2022-11-03T19:37:51.165Z,71.03
2022-11-03T19:41:15.041Z,70.95
2022-11-03T19:44:21.101Z,71.08
2022-11-03T19:48:10.504Z,71.22
2022-11-03T19:51:15.579Z,71.19
2022-11-03T19:54:24.856Z,71.34
2022-11-03T19:57:31.100Z,71.49
2022-11-03T20:00:37.102Z,71.87
2022-11-03T20:03:43.347Z,71.85
2022-11-03T20:06:49.825Z,71.94
2022-11-03T20:09:56.120Z,71.83
2022-11-03T20:13:00.917Z,72.07
2022-11-03T20:16:11.833Z,72.20
2022-11-03T20:19:17.920Z,72.28
2022-11-03T20:22:29.024Z,72.26
2022-11-03T20:25:37.246Z,72.38
2022-11-03T20:28:43.741Z,72.42
2022-11-03T20:31:49.952Z,72.50
2022-11-03T20:34:56.841Z,72.56
2022-11-03T20:38:03.133Z,73.01
2022-11-03T20:41:16.435Z,72.88
2022-11-03T20:44:23.965Z,72.95
2022-11-03T20:47:32.784Z,73.02
2022-11-03T20:50:39.516Z,73.18
2022-11-03T20:53:46.341Z,73.14
2022-11-03T20:56:52.421Z,73.23
2022-11-03T20:59:58.577Z,73.31
2022-11-03T21:03:21.078Z,73.51
2022-11-03T21:06:37.625Z,73.72
2022-11-03T21:09:44.220Z,73.80
2022-11-03T21:12:50.994Z,73.73
2022-11-03T21:16:24.133Z,73.92
2022-11-03T21:19:55.841Z,74.08
2022-11-03T21:23:01.974Z,74.13
2022-11-03T21:26:10.529Z,74.23
2022-11-03T21:29:27.513Z,74.27
2022-11-03T21:32:39.303Z,74.37
2022-11-03T21:35:46.826Z,74.28
2022-11-03T21:38:52.960Z,74.40
2022-11-03T21:42:17.789Z,74.51
2022-11-03T21:45:24.163Z,74.57
2022-11-03T21:48:46.194Z,74.66
2022-11-03T21:51:52.325Z,74.76
2022-11-03T21:54:58.634Z,74.83
2022-11-03T21:58:04.498Z,74.95
2022-11-03T22:01:11.244Z,75.10
2022-11-03T22:04:17.394Z,74.96
2022-11-03T22:07:24.046Z,74.98
2022-11-03T22:10:30.209Z,74.99
2022-11-03T22:13:36.298Z,74.98
2022-11-03T22:16:42.804Z,75.32
2022-11-03T22:20:06.777Z,75.38
2022-11-03T22:23:32.781Z,75.51
2022-11-03T22:27:00.069Z,75.50
2022-11-03T22:30:25.581Z,75.49
2022-11-03T22:33:51.816Z,75.55
2022-11-03T22:36:57.881Z,75.71
2022-11-03T22:40:21.758Z,75.90
2022-11-03T22:43:46.147Z,75.77
2022-11-03T22:46:52.173Z,75.71
2022-11-03T22:49:58.229Z,75.98
2022-11-03T22:53:24.403Z,75.94
2022-11-03T22:56:31.529Z,76.09
2022-11-03T22:59:37.597Z,76.05
2022-11-03T23:02:44.324Z,76.07
2022-11-03T23:05:50.491Z,76.20
2022-11-03T23:08:57.727Z,76.19
2022-11-03T23:12:03.929Z,76.16
2022-11-03T23:15:29.364Z,76.15
2022-11-03T23:18:53.035Z,76.13
2022-11-03T23:21:59.510Z,75.94
2022-11-03T23:25:05.993Z,75.97
2022-11-03T23:28:12.105Z,76.19
2022-11-03T23:31:18.508Z,76.27
2022-11-03T23:34:24.880Z,76.37
2022-11-03T23:37:29.506Z,76.32
2022-11-03T23:40:36.305Z,76.31
2022-11-03T23:43:43.133Z,76.28
2022-11-03T23:47:06.636Z,76.30
2022-11-03T23:50:13.025Z,76.34
2022-11-03T23:53:17.541Z,76.49
2022-11-03T23:56:42.945Z,76.59
2022-11-03T23:59:49.163Z,76.53
